createdAt,value
2022-08-22T00:02:06.107Z,5.88
2022-08-22T00:05:13.605Z,5.50
2022-08-22T00:08:36.381Z,5.53
2022-08-22T00:11:47.155Z,5.50
2022-08-22T00:14:51.742Z,5.47
2022-08-22T00:18:22.955Z,5.53
2022-08-22T00:21:58.600Z,5.10
2022-08-22T00:25:25.733Z,5.63
2022-08-22T00:28:39.174Z,5.95
2022-08-22T00:31:48.734Z,5.77
2022-08-22T00:35:01.614Z,6.00
2022-08-22T00:38:17.296Z,6.00
2022-08-22T00:41:47.560Z,6.25
2022-08-22T00:45:02.208Z,5.72
2022-08-22T00:48:22.177Z,5.70
2022-08-22T00:51:54.681Z,5.80
2022-08-22T00:55:02.318Z,6.20
2022-08-22T00:58:34.048Z,6.00
2022-08-22T01:01:52.646Z,6.10
2022-08-22T01:05:44.512Z,6.10
2022-08-22T01:09:04.181Z,5.80
2022-08-22T01:12:17.455Z,5.85
2022-08-22T01:15:26.973Z,5.80
2022-08-22T01:18:56.613Z,6.10
2022-08-22T01:22:26.220Z,6.50
2022-08-22T01:26:11.118Z,6.55
2022-08-22T01:30:12.470Z,6.20
2022-08-22T01:33:52.576Z,6.38
2022-08-22T01:37:28.529Z,6.53
2022-08-22T01:40:36.173Z,6.90
2022-08-22T01:44:02.324Z,6.22
2022-08-22T01:47:12.190Z,6.07
2022-08-22T01:50:36.802Z,6.50
2022-08-22T01:53:45.402Z,6.43
2022-08-22T01:56:47.406Z,6.40
2022-08-22T01:59:55.304Z,6.47
2022-08-22T02:03:21.616Z,6.43
2022-08-22T02:06:35.825Z,6.60
2022-08-22T02:09:46.525Z,6.47
2022-08-22T02:12:55.220Z,6.27
2022-08-22T02:16:16.920Z,6.40
2022-08-22T02:19:32.082Z,6.30
2022-08-22T02:22:53.190Z,6.30
2022-08-22T02:26:01.171Z,6.50
2022-08-22T02:29:12.385Z,6.77
2022-08-22T02:32:29.431Z,6.65
2022-08-22T02:35:38.594Z,6.35
2022-08-22T02:39:03.122Z,6.30
2022-08-22T02:42:25.985Z,6.22
2022-08-22T02:45:44.869Z,6.50
2022-08-22T02:49:13.555Z,6.32
2022-08-22T02:52:32.287Z,6.38
2022-08-22T02:55:44.136Z,6.53
2022-08-22T02:59:11.806Z,6.32
2022-08-22T03:02:36.011Z,6.10
2022-08-22T03:05:37.635Z,5.97
2022-08-22T03:09:20.600Z,6.35
2022-08-22T03:12:47.157Z,5.90
2022-08-22T03:15:56.527Z,6.10
2022-08-22T03:19:30.439Z,6.20
2022-08-22T03:23:00.160Z,6.40
2022-08-22T03:26:13.734Z,6.50
2022-08-22T03:29:25.251Z,5.82
2022-08-22T03:33:12.745Z,6.30
2022-08-22T03:36:14.533Z,6.40
2022-08-22T03:39:35.555Z,6.55
2022-08-22T03:42:53.784Z,6.13
2022-08-22T03:46:27.811Z,6.47
2022-08-22T03:49:59.230Z,6.23
2022-08-22T03:53:23.202Z,6.38
2022-08-22T03:57:02.016Z,6.78
2022-08-22T04:00:19.797Z,6.72
2022-08-22T04:03:57.037Z,6.65
2022-08-22T04:07:33.267Z,7.03
2022-08-22T04:11:02.685Z,6.93
2022-08-22T04:14:44.081Z,6.82
2022-08-22T04:17:58.155Z,7.30
2022-08-22T04:21:31.360Z,6.72
2022-08-22T04:25:18.403Z,6.50
2022-08-22T04:28:34.675Z,7.07
2022-08-22T04:31:47.977Z,7.03
2022-08-22T04:35:06.960Z,7.00
2022-08-22T04:38:29.709Z,7.03
2022-08-22T04:41:49.857Z,7.38
2022-08-22T04:44:56.102Z,6.93
2022-08-22T04:48:08.315Z,7.88
2022-08-22T04:51:30.855Z,7.78
2022-08-22T04:55:08.231Z,7.30
2022-08-22T04:58:22.107Z,7.78
2022-08-22T05:01:40.006Z,7.63
2022-08-22T05:04:48.023Z,7.40
2022-08-22T05:08:04.334Z,7.45
2022-08-22T05:11:09.629Z,7.00
2022-08-22T05:14:27.817Z,7.63
2022-08-22T05:17:42.062Z,7.43
2022-08-22T05:20:49.236Z,7.35
2022-08-22T05:24:08.627Z,7.05
2022-08-22T05:27:28.783Z,8.17
2022-08-22T05:30:33.757Z,7.15
2022-08-22T05:33:51.463Z,7.38
2022-08-22T05:37:03.487Z,7.20
2022-08-22T05:40:25.794Z,6.97
2022-08-22T05:43:28.637Z,7.50
2022-08-22T05:46:48.076Z,7.15
2022-08-22T05:50:18.281Z,7.03
2022-08-22T05:53:32.199Z,7.18
2022-08-22T05:56:45.596Z,7.22
2022-08-22T05:59:52.283Z,7.10
2022-08-22T06:03:15.851Z,7.60
2022-08-22T06:06:20.843Z,7.38
2022-08-22T06:09:35.502Z,8.07
2022-08-22T06:12:44.186Z,7.85
2022-08-22T06:15:58.599Z,8.07
2022-08-22T06:19:19.238Z,7.70
2022-08-22T06:22:31.665Z,8.27
2022-08-22T06:25:53.651Z,7.72
2022-08-22T06:29:00.614Z,7.95
2022-08-22T06:32:44.345Z,8.17
2022-08-22T06:36:11.289Z,8.52
2022-08-22T06:39:30.337Z,8.10
2022-08-22T06:42:33.916Z,8.10
2022-08-22T06:45:39.295Z,9.05
2022-08-22T06:48:41.603Z,8.93
2022-08-22T06:51:48.095Z,8.55
2022-08-22T06:54:58.192Z,8.60
2022-08-22T06:58:38.507Z,8.35
2022-08-22T07:01:53.867Z,7.82
2022-08-22T07:04:56.041Z,8.70
2022-08-22T07:07:58.166Z,8.20
2022-08-22T07:11:21.929Z,8.30
2022-08-22T07:14:35.812Z,7.85
2022-08-22T07:17:53.743Z,7.53
2022-08-22T07:21:14.507Z,8.03
2022-08-22T07:24:30.508Z,7.30
2022-08-22T07:28:15.922Z,7.63
2022-08-22T07:32:04.565Z,6.78
2022-08-22T07:35:31.431Z,6.22
2022-08-22T07:38:43.841Z,6.37
2022-08-22T07:42:02.352Z,5.97
2022-08-22T07:45:10.506Z,5.60
2022-08-22T07:48:25.383Z,5.50
2022-08-22T07:51:54.020Z,5.13
2022-08-22T07:55:09.548Z,5.30
2022-08-22T07:58:13.760Z,5.38
2022-08-22T08:01:26.465Z,5.10
2022-08-22T08:04:40.042Z,4.88
2022-08-22T08:07:45.651Z,4.47
2022-08-22T08:10:50.770Z,4.50
2022-08-22T08:14:00.850Z,4.00
2022-08-22T08:17:13.391Z,4.35
2022-08-22T08:20:22.606Z,3.90
2022-08-22T08:23:26.660Z,3.95
2022-08-22T08:26:38.443Z,3.70
2022-08-22T08:29:55.390Z,3.80
2022-08-22T08:33:25.349Z,3.40
2022-08-22T08:36:53.324Z,3.50
2022-08-22T08:39:59.388Z,3.65
2022-08-22T08:43:23.083Z,3.60
2022-08-22T08:46:59.536Z,2.90
2022-08-22T08:50:10.511Z,3.10
2022-08-22T08:53:43.377Z,2.92
2022-08-22T08:56:49.741Z,3.10
2022-08-22T09:00:17.824Z,3.00
2022-08-22T09:03:43.962Z,3.03
2022-08-22T09:06:56.761Z,3.22
2022-08-22T09:10:22.150Z,3.22
2022-08-22T09:14:01.738Z,3.65
2022-08-22T09:17:11.867Z,3.60
2022-08-22T09:29:55.178Z,3.50
2022-08-22T09:33:15.114Z,3.40
2022-08-22T09:36:52.428Z,3.40
2022-08-22T09:44:33.842Z,2.80
2022-08-22T09:48:18.404Z,3.17
2022-08-22T09:51:52.420Z,3.28
2022-08-22T09:55:16.885Z,2.87
2022-08-22T09:58:49.670Z,3.03
2022-08-22T10:02:06.053Z,3.00
2022-08-22T10:05:40.592Z,3.03
2022-08-22T10:09:09.081Z,3.15
2022-08-22T10:12:19.534Z,3.20
2022-08-22T10:15:42.733Z,3.17
2022-08-22T10:19:22.868Z,3.10
2022-08-22T10:22:36.521Z,3.45
2022-08-22T10:25:42.975Z,3.30
2022-08-22T10:28:56.534Z,2.80
2022-08-22T10:32:14.597Z,3.00
2022-08-22T10:35:39.186Z,3.13
2022-08-22T10:38:52.436Z,3.20
2022-08-22T10:42:35.151Z,2.78
2022-08-22T10:45:47.059Z,3.00
2022-08-22T10:48:54.432Z,3.03
2022-08-22T10:52:15.689Z,2.95
2022-08-22T10:55:27.440Z,2.85
2022-08-22T10:58:37.090Z,3.03
2022-08-22T11:01:52.482Z,2.90
2022-08-22T11:05:25.972Z,2.87
2022-08-22T11:09:07.979Z,3.08
2022-08-22T11:12:35.220Z,2.80
2022-08-22T11:16:01.361Z,3.00
2022-08-22T11:19:23.497Z,3.10
2022-08-22T11:22:29.377Z,3.03
2022-08-22T11:25:42.219Z,3.13
2022-08-22T11:29:13.167Z,2.80
2022-08-22T11:32:25.786Z,3.13
2022-08-22T11:35:34.218Z,3.10
2022-08-22T11:38:58.474Z,3.07
2022-08-22T11:42:14.316Z,3.15
2022-08-22T11:45:24.034Z,3.22
2022-08-22T11:48:31.392Z,3.20
2022-08-22T11:52:07.246Z,2.90
2022-08-22T11:55:27.565Z,3.17
2022-08-22T11:58:40.869Z,3.05
2022-08-22T12:02:01.275Z,3.00
2022-08-22T12:05:20.243Z,3.08
2022-08-22T12:08:38.270Z,3.10
2022-08-22T12:12:17.151Z,3.00
2022-08-22T12:15:53.857Z,2.90
2022-08-22T12:19:23.060Z,2.65
2022-08-22T12:23:17.129Z,2.97
2022-08-22T12:26:45.164Z,2.77
2022-08-22T12:30:13.767Z,2.80
2022-08-22T12:33:28.175Z,2.80
2022-08-22T12:36:46.286Z,2.63
2022-08-22T12:40:04.626Z,2.70
2022-08-22T12:43:43.962Z,2.47
2022-08-22T12:47:04.332Z,2.80
2022-08-22T12:50:26.647Z,2.75
2022-08-22T12:53:51.205Z,2.90
2022-08-22T12:56:53.886Z,2.65
2022-08-22T13:00:34.841Z,2.60
2022-08-22T13:03:57.321Z,2.70
2022-08-22T13:07:26.819Z,2.55
2022-08-22T13:11:10.048Z,2.38
2022-08-22T13:14:25.645Z,2.60
2022-08-22T13:17:31.503Z,2.40
2022-08-22T13:20:37.547Z,2.60
2022-08-22T13:23:50.861Z,2.58
2022-08-22T13:26:59.862Z,2.70
2022-08-22T13:30:30.223Z,2.90
2022-08-22T13:33:36.120Z,2.50
2022-08-22T13:36:52.112Z,2.30
2022-08-22T13:40:01.960Z,2.50
2022-08-22T13:43:09.985Z,2.70
2022-08-22T13:46:13.087Z,2.60
2022-08-22T13:49:24.908Z,2.40
2022-08-22T13:52:38.139Z,2.57
2022-08-22T13:55:49.919Z,2.50
2022-08-22T13:59:01.579Z,2.47
2022-08-22T14:02:15.205Z,2.40
2022-08-22T14:05:33.189Z,2.60
2022-08-22T14:08:40.975Z,2.60
2022-08-22T14:11:55.617Z,2.50
2022-08-22T14:15:01.002Z,2.50
2022-08-22T14:18:09.127Z,2.50
2022-08-22T14:21:29.207Z,2.30
2022-08-22T14:24:47.781Z,2.57
2022-08-22T14:28:01.488Z,2.30
2022-08-22T14:31:14.271Z,2.30
2022-08-22T14:34:16.662Z,2.33
2022-08-22T14:37:25.718Z,2.17
2022-08-22T14:40:33.474Z,2.17
2022-08-22T14:43:57.051Z,2.40
2022-08-22T14:47:15.852Z,2.28
2022-08-22T14:51:01.163Z,2.42
2022-08-22T14:54:21.589Z,2.20
2022-08-22T14:57:23.828Z,2.43
2022-08-22T15:00:38.461Z,2.10
2022-08-22T15:03:41.649Z,1.90
2022-08-22T15:06:53.637Z,2.10
2022-08-22T15:10:03.360Z,2.17
2022-08-22T15:13:10.308Z,2.40
2022-08-22T15:16:23.494Z,2.30
2022-08-22T15:19:28.119Z,2.20
2022-08-22T15:22:30.169Z,2.10
2022-08-22T15:25:41.125Z,2.20
2022-08-22T15:28:53.010Z,2.03
2022-08-22T15:37:25.873Z,2.30
2022-08-22T15:40:48.823Z,2.20
2022-08-22T15:44:14.791Z,2.10
2022-08-22T15:47:44.049Z,2.00
2022-08-22T15:50:56.814Z,2.00
2022-08-22T15:54:24.234Z,1.90
2022-08-22T15:57:42.497Z,1.95
2022-08-22T16:01:58.527Z,2.10
2022-08-22T16:05:10.692Z,2.30
2022-08-22T16:12:46.565Z,2.47
2022-08-22T16:15:52.627Z,2.50
2022-08-22T16:19:30.701Z,2.60
2022-08-22T16:22:58.030Z,2.53
2022-08-22T16:26:01.664Z,2.30
2022-08-22T16:29:27.049Z,2.40
2022-08-22T16:32:30.130Z,2.80
2022-08-22T16:36:10.320Z,2.27
2022-08-22T16:39:25.229Z,2.47
2022-08-22T16:42:41.889Z,2.50
2022-08-22T16:45:46.392Z,2.40
2022-08-22T16:49:02.502Z,2.50
2022-08-22T16:52:23.737Z,2.50
2022-08-22T16:55:34.586Z,2.43
2022-08-22T16:59:22.332Z,2.67
2022-08-22T17:02:37.889Z,2.70
2022-08-22T17:05:53.297Z,2.70
2022-08-22T17:08:58.674Z,2.60
2022-08-22T17:12:18.085Z,2.23
2022-08-22T17:15:28.981Z,2.60
2022-08-22T17:18:41.188Z,2.50
2022-08-22T17:21:57.209Z,2.42
2022-08-22T17:25:13.461Z,2.30
2022-08-22T17:28:47.813Z,2.30
2022-08-22T17:32:19.073Z,2.33
2022-08-22T17:35:45.696Z,2.20
2022-08-22T17:39:21.791Z,2.30
2022-08-22T17:42:42.435Z,2.30
2022-08-22T17:46:05.707Z,2.10
2022-08-22T17:49:19.638Z,2.40
2022-08-22T17:52:49.377Z,2.35
2022-08-22T17:55:57.823Z,2.33
2022-08-22T17:59:05.649Z,2.40
2022-08-22T18:02:33.210Z,2.30
2022-08-22T18:06:03.954Z,2.33
2022-08-22T18:09:18.678Z,2.08
2022-08-22T18:12:31.199Z,2.20
2022-08-22T18:15:54.295Z,2.37
2022-08-22T18:19:06.635Z,2.13
2022-08-22T18:22:19.154Z,2.15
2022-08-22T18:25:21.234Z,2.30
2022-08-22T18:29:04.094Z,2.22
2022-08-22T18:32:11.162Z,2.10
2022-08-22T18:35:42.201Z,2.40
2022-08-22T18:39:08.143Z,2.40
2022-08-22T18:42:24.241Z,2.20
2022-08-22T18:45:48.071Z,2.10
2022-08-22T18:49:13.980Z,2.00
2022-08-22T18:52:19.362Z,2.20
2022-08-22T18:55:46.774Z,2.10
2022-08-22T18:59:11.598Z,2.00
2022-08-22T19:02:49.240Z,2.00
2022-08-22T19:06:15.218Z,2.33
2022-08-22T19:09:41.474Z,1.80
2022-08-22T19:13:08.029Z,1.80
2022-08-22T19:16:52.221Z,1.90
2022-08-22T19:20:43.426Z,1.92
2022-08-22T19:23:49.747Z,1.90
2022-08-22T19:27:30.919Z,1.90
2022-08-22T19:30:43.015Z,2.08
2022-08-22T19:33:50.021Z,1.90
2022-08-22T19:37:30.921Z,1.77
2022-08-22T19:41:03.432Z,1.90
2022-08-22T19:44:33.958Z,1.80
2022-08-22T19:47:44.993Z,1.80
2022-08-22T19:51:20.114Z,1.80
2022-08-22T19:54:25.565Z,2.00
2022-08-22T19:57:52.862Z,1.90
2022-08-22T20:01:05.437Z,2.10
2022-08-22T20:04:21.791Z,2.13
2022-08-22T20:07:45.325Z,2.28
2022-08-22T20:11:16.864Z,1.90
2022-08-22T20:14:30.650Z,2.20
2022-08-22T20:17:43.736Z,2.00
2022-08-22T20:21:00.170Z,2.10
2022-08-22T20:24:07.846Z,2.00
2022-08-22T20:27:16.076Z,2.40
2022-08-22T20:30:25.317Z,2.60
2022-08-22T20:33:33.098Z,2.25
2022-08-22T20:36:36.232Z,2.58
2022-08-22T20:40:07.003Z,2.50
2022-08-22T20:43:37.246Z,2.55
2022-08-22T20:46:47.123Z,2.50
2022-08-22T20:50:02.518Z,2.50
2022-08-22T20:53:15.844Z,2.60
2022-08-22T20:56:39.101Z,2.80
2022-08-22T20:59:58.565Z,2.75
2022-08-22T21:03:14.338Z,3.17
2022-08-22T21:06:29.521Z,2.92
2022-08-22T21:09:51.065Z,2.83
2022-08-22T21:13:12.225Z,2.90
2022-08-22T21:16:31.465Z,2.80
2022-08-22T21:19:34.979Z,2.70
2022-08-22T21:22:38.244Z,2.38
2022-08-22T21:25:54.416Z,2.60
2022-08-22T21:29:21.870Z,2.55
2022-08-22T21:32:32.787Z,2.92
2022-08-22T21:35:38.388Z,2.67
2022-08-22T21:38:46.979Z,2.90
2022-08-22T21:41:53.099Z,2.50
2022-08-22T21:45:31.272Z,2.65
2022-08-22T21:48:46.921Z,2.53
2022-08-22T21:51:52.381Z,2.63
2022-08-22T21:54:56.152Z,2.95
2022-08-22T21:58:35.767Z,2.80
2022-08-22T22:01:42.655Z,3.00
2022-08-22T22:04:45.887Z,2.78
2022-08-22T22:07:48.405Z,3.07
2022-08-22T22:10:54.721Z,3.08
2022-08-22T22:13:58.562Z,3.45
2022-08-22T22:17:01.026Z,3.60
2022-08-22T22:20:06.316Z,3.13
2022-08-22T22:23:09.413Z,3.30
2022-08-22T22:26:12.881Z,3.33
2022-08-22T22:29:16.450Z,3.00
2022-08-22T22:32:19.059Z,3.00
2022-08-22T22:35:22.282Z,3.30
2022-08-22T22:38:26.157Z,2.93
2022-08-22T22:41:31.567Z,3.40
2022-08-22T22:44:35.013Z,3.28
2022-08-22T22:47:38.492Z,3.28
2022-08-22T22:50:46.263Z,3.38
2022-08-22T22:53:52.690Z,3.30
2022-08-22T22:56:55.719Z,3.33
2022-08-22T23:00:02.030Z,3.17
2022-08-22T23:03:06.647Z,3.40
2022-08-22T23:06:13.635Z,3.45
2022-08-22T23:09:17.060Z,3.50
2022-08-22T23:12:22.597Z,3.60
2022-08-22T23:15:25.119Z,3.60
2022-08-22T23:18:31.044Z,3.70
2022-08-22T23:21:35.577Z,3.33
2022-08-22T23:24:40.874Z,3.47
2022-08-22T23:27:44.463Z,3.28
2022-08-22T23:30:51.474Z,3.47
2022-08-22T23:33:55.075Z,3.35
2022-08-22T23:37:05.756Z,3.22
2022-08-22T23:40:11.035Z,3.60
2022-08-22T23:43:14.511Z,3.45
2022-08-22T23:46:20.331Z,3.67
2022-08-22T23:49:24.234Z,3.50
2022-08-22T23:52:28.330Z,3.67
2022-08-22T23:55:31.398Z,3.60
2022-08-22T23:58:37.606Z,3.50
